sensor_id;sensor_type;location;lat;lon;timestamp;P1;durP1;ratioP1;P2;durP2;ratioP2
32329;SDS011;18807;52.434;13.238;2023-04-24T00:03:34;6.32;;;4.70;;
32329;SDS011;18807;52.434;13.238;2023-04-24T00:11:09;6.78;;;4.50;;
32329;SDS011;18807;52.434;13.238;2023-04-24T00:18:44;7.70;;;5.45;;
32329;SDS011;18807;52.434;13.238;2023-04-24T00:26:20;7.07;;;5.50;;
32329;SDS011;18807;52.434;13.238;2023-04-24T00:33:55;7.15;;;5.53;;
32329;SDS011;18807;52.434;13.238;2023-04-24T00:41:29;6.40;;;5.10;;
32329;SDS011;18807;52.434;13.238;2023-04-24T00:49:05;8.30;;;6.23;;
32329;SDS011;18807;52.434;13.238;2023-04-24T00:56:39;6.43;;;5.45;;
32329;SDS011;18807;52.434;13.238;2023-04-24T01:04:14;7.17;;;5.47;;
32329;SDS011;18807;52.434;13.238;2023-04-24T01:11:51;6.93;;;5.45;;
32329;SDS011;18807;52.434;13.238;2023-04-24T01:19:27;8.00;;;6.07;;
32329;SDS011;18807;52.434;13.238;2023-04-24T01:27:03;8.95;;;6.55;;
32329;SDS011;18807;52.434;13.238;2023-04-24T01:34:37;8.18;;;7.15;;
32329;SDS011;18807;52.434;13.238;2023-04-24T01:42:13;14.85;;;7.45;;
32329;SDS011;18807;52.434;13.238;2023-04-24T01:49:47;10.05;;;6.88;;
32329;SDS011;18807;52.434;13.238;2023-04-24T01:57:24;8.18;;;6.63;;
32329;SDS011;18807;52.434;13.238;2023-04-24T02:04:58;10.90;;;7.60;;
32329;SDS011;18807;52.434;13.238;2023-04-24T02:12:34;9.25;;;7.18;;
32329;SDS011;18807;52.434;13.238;2023-04-24T02:20:08;6.72;;;5.78;;
32329;SDS011;18807;52.434;13.238;2023-04-24T02:27:44;10.87;;;6.77;;
32329;SDS011;18807;52.434;13.238;2023-04-24T02:35:18;8.32;;;6.35;;
32329;SDS011;18807;52.434;13.238;2023-04-24T02:42:53;9.93;;;7.73;;
32329;SDS011;18807;52.434;13.238;2023-04-24T02:50:27;11.32;;;8.38;;
32329;SDS011;18807;52.434;13.238;2023-04-24T02:58:02;10.05;;;7.50;;
32329;SDS011;18807;52.434;13.238;2023-04-24T03:05:36;8.55;;;6.57;;
32329;SDS011;18807;52.434;13.238;2023-04-24T03:13:12;10.80;;;8.25;;
32329;SDS011;18807;52.434;13.238;2023-04-24T03:20:46;10.70;;;8.57;;
32329;SDS011;18807;52.434;13.238;2023-04-24T03:28:21;10.50;;;8.05;;
32329;SDS011;18807;52.434;13.238;2023-04-24T03:35:55;10.30;;;7.35;;
32329;SDS011;18807;52.434;13.238;2023-04-24T03:43:31;9.45;;;7.25;;
32329;SDS011;18807;52.434;13.238;2023-04-24T03:51:05;9.35;;;7.05;;
32329;SDS011;18807;52.434;13.238;2023-04-24T03:58:40;9.05;;;7.20;;
32329;SDS011;18807;52.434;13.238;2023-04-24T04:06:15;9.20;;;6.78;;
32329;SDS011;18807;52.434;13.238;2023-04-24T04:14:09;10.05;;;7.30;;
32329;SDS011;18807;52.434;13.238;2023-04-24T04:21:43;8.70;;;6.47;;
32329;SDS011;18807;52.434;13.238;2023-04-24T04:29:19;10.77;;;6.65;;
32329;SDS011;18807;52.434;13.238;2023-04-24T04:36:54;7.05;;;6.35;;
32329;SDS011;18807;52.434;13.238;2023-04-24T04:44:33;7.10;;;5.95;;
32329;SDS011;18807;52.434;13.238;2023-04-24T04:52:08;7.05;;;5.75;;
32329;SDS011;18807;52.434;13.238;2023-04-24T04:59:44;10.55;;;9.23;;
32329;SDS011;18807;52.434;13.238;2023-04-24T05:07:18;8.95;;;6.97;;
32329;SDS011;18807;52.434;13.238;2023-04-24T05:14:53;7.18;;;5.88;;
32329;SDS011;18807;52.434;13.238;2023-04-24T05:22:27;6.22;;;5.18;;
32329;SDS011;18807;52.434;13.238;2023-04-24T05:30:03;8.43;;;5.07;;
32329;SDS011;18807;52.434;13.238;2023-04-24T05:37:38;4.93;;;3.47;;
32329;SDS011;18807;52.434;13.238;2023-04-24T05:45:14;3.38;;;2.70;;
32329;SDS011;18807;52.434;13.238;2023-04-24T05:52:49;4.00;;;2.67;;
32329;SDS011;18807;52.434;13.238;2023-04-24T06:00:24;3.92;;;3.05;;
32329;SDS011;18807;52.434;13.238;2023-04-24T06:07:59;2.58;;;2.30;;
32329;SDS011;18807;52.434;13.238;2023-04-24T06:15:34;2.55;;;1.40;;
32329;SDS011;18807;52.434;13.238;2023-04-24T06:23:08;1.88;;;1.55;;
32329;SDS011;18807;52.434;13.238;2023-04-24T06:30:44;2.67;;;1.63;;
32329;SDS011;18807;52.434;13.238;2023-04-24T06:38:18;1.23;;;1.05;;
32329;SDS011;18807;52.434;13.238;2023-04-24T06:45:55;1.43;;;1.03;;
32329;SDS011;18807;52.434;13.238;2023-04-24T06:53:29;1.80;;;0.93;;
32329;SDS011;18807;52.434;13.238;2023-04-24T07:01:05;1.40;;;1.10;;
32329;SDS011;18807;52.434;13.238;2023-04-24T07:08:39;1.30;;;0.80;;
32329;SDS011;18807;52.434;13.238;2023-04-24T07:16:15;1.10;;;1.00;;
32329;SDS011;18807;52.434;13.238;2023-04-24T07:23:49;0.60;;;0.60;;
32329;SDS011;18807;52.434;13.238;2023-04-24T07:31:25;0.93;;;0.70;;
32329;SDS011;18807;52.434;13.238;2023-04-24T07:38:59;0.70;;;0.70;;
32329;SDS011;18807;52.434;13.238;2023-04-24T07:46:34;0.77;;;0.63;;
32329;SDS011;18807;52.434;13.238;2023-04-24T07:54:09;1.10;;;0.60;;
32329;SDS011;18807;52.434;13.238;2023-04-24T08:01:44;0.32;;;0.32;;
32329;SDS011;18807;52.434;13.238;2023-04-24T08:09:18;0.82;;;0.77;;
32329;SDS011;18807;52.434;13.238;2023-04-24T08:16:53;0.60;;;0.52;;
32329;SDS011;18807;52.434;13.238;2023-04-24T08:24:28;1.08;;;0.50;;
32329;SDS011;18807;52.434;13.238;2023-04-24T08:32:03;1.73;;;0.43;;
32329;SDS011;18807;52.434;13.238;2023-04-24T08:39:38;1.50;;;0.50;;
32329;SDS011;18807;52.434;13.238;2023-04-24T08:47:13;1.17;;;0.60;;
32329;SDS011;18807;52.434;13.238;2023-04-24T08:54:48;2.60;;;0.60;;
32329;SDS011;18807;52.434;13.238;2023-04-24T09:02:24;0.77;;;0.57;;
32329;SDS011;18807;52.434;13.238;2023-04-24T09:09:59;0.80;;;0.70;;
32329;SDS011;18807;52.434;13.238;2023-04-24T09:17:36;2.17;;;0.70;;
32329;SDS011;18807;52.434;13.238;2023-04-24T09:25:11;0.60;;;0.60;;
32329;SDS011;18807;52.434;13.238;2023-04-24T09:32:47;1.97;;;0.77;;
32329;SDS011;18807;52.434;13.238;2023-04-24T09:40:21;1.48;;;0.70;;
32329;SDS011;18807;52.434;13.238;2023-04-24T09:47:59;0.50;;;0.50;;
32329;SDS011;18807;52.434;13.238;2023-04-24T09:55:32;2.42;;;0.70;;
32329;SDS011;18807;52.434;13.238;2023-04-24T10:03:13;0.50;;;0.50;;
32329;SDS011;18807;52.434;13.238;2023-04-24T10:10:47;10.13;;;0.80;;
32329;SDS011;18807;52.434;13.238;2023-04-24T10:18:23;0.60;;;0.60;;
32329;SDS011;18807;52.434;13.238;2023-04-24T10:25:58;4.13;;;0.90;;
32329;SDS011;18807;52.434;13.238;2023-04-24T10:33:35;1.55;;;0.68;;
32329;SDS011;18807;52.434;13.238;2023-04-24T10:41:10;1.83;;;0.60;;
32329;SDS011;18807;52.434;13.238;2023-04-24T10:48:53;3.20;;;1.00;;
32329;SDS011;18807;52.434;13.238;2023-04-24T10:56:32;0.90;;;0.60;;
32329;SDS011;18807;52.434;13.238;2023-04-24T11:04:08;0.73;;;0.70;;
32329;SDS011;18807;52.434;13.238;2023-04-24T11:11:44;0.68;;;0.65;;
32329;SDS011;18807;52.434;13.238;2023-04-24T11:19:22;3.50;;;0.75;;
32329;SDS011;18807;52.434;13.238;2023-04-24T11:26:58;1.52;;;0.82;;
32329;SDS011;18807;52.434;13.238;2023-04-24T11:34:39;2.55;;;0.80;;
32329;SDS011;18807;52.434;13.238;2023-04-24T11:42:14;0.93;;;0.80;;
32329;SDS011;18807;52.434;13.238;2023-04-24T11:49:51;2.40;;;0.95;;
32329;SDS011;18807;52.434;13.238;2023-04-24T11:57:25;3.00;;;1.10;;
32329;SDS011;18807;52.434;13.238;2023-04-24T12:05:02;7.68;;;1.13;;
32329;SDS011;18807;52.434;13.238;2023-04-24T12:12:37;0.77;;;0.57;;
32329;SDS011;18807;52.434;13.238;2023-04-24T12:20:13;2.33;;;0.77;;
32329;SDS011;18807;52.434;13.238;2023-04-24T12:27:52;0.50;;;0.43;;
32329;SDS011;18807;52.434;13.238;2023-04-24T12:35:28;2.75;;;0.65;;
32329;SDS011;18807;52.434;13.238;2023-04-24T12:43:12;1.33;;;0.63;;
32329;SDS011;18807;52.434;13.238;2023-04-24T12:50:49;1.20;;;0.50;;
32329;SDS011;18807;52.434;13.238;2023-04-24T12:58:23;0.90;;;0.60;;
32329;SDS011;18807;52.434;13.238;2023-04-24T13:05:58;0.60;;;0.50;;
32329;SDS011;18807;52.434;13.238;2023-04-24T13:13:32;1.10;;;0.55;;
32329;SDS011;18807;52.434;13.238;2023-04-24T13:21:08;0.50;;;0.40;;
32329;SDS011;18807;52.434;13.238;2023-04-24T13:28:42;0.77;;;0.55;;
32329;SDS011;18807;52.434;13.238;2023-04-24T13:36:17;0.65;;;0.60;;
32329;SDS011;18807;52.434;13.238;2023-04-24T13:43:51;0.55;;;0.45;;
32329;SDS011;18807;52.434;13.238;2023-04-24T13:51:26;0.40;;;0.40;;
32329;SDS011;18807;52.434;13.238;2023-04-24T13:59:01;1.38;;;0.65;;
32329;SDS011;18807;52.434;13.238;2023-04-24T14:06:36;2.35;;;0.68;;
32329;SDS011;18807;52.434;13.238;2023-04-24T14:14:10;0.50;;;0.50;;
32329;SDS011;18807;52.434;13.238;2023-04-24T14:21:46;1.27;;;1.17;;
32329;SDS011;18807;52.434;13.238;2023-04-24T14:29:20;0.52;;;0.50;;
32329;SDS011;18807;52.434;13.238;2023-04-24T14:36:55;1.08;;;0.98;;
32329;SDS011;18807;52.434;13.238;2023-04-24T14:44:30;1.70;;;0.70;;
32329;SDS011;18807;52.434;13.238;2023-04-24T14:52:06;0.97;;;0.90;;
32329;SDS011;18807;52.434;13.238;2023-04-24T14:59:40;3.50;;;0.90;;
32329;SDS011;18807;52.434;13.238;2023-04-24T15:07:15;1.45;;;1.15;;
32329;SDS011;18807;52.434;13.238;2023-04-24T15:14:49;1.15;;;0.98;;
32329;SDS011;18807;52.434;13.238;2023-04-24T15:22:24;1.10;;;1.00;;
32329;SDS011;18807;52.434;13.238;2023-04-24T15:29:58;1.85;;;0.82;;
32329;SDS011;18807;52.434;13.238;2023-04-24T15:37:34;2.20;;;0.95;;
32329;SDS011;18807;52.434;13.238;2023-04-24T15:45:08;1.40;;;1.05;;
32329;SDS011;18807;52.434;13.238;2023-04-24T15:52:44;2.25;;;0.85;;
32329;SDS011;18807;52.434;13.238;2023-04-24T16:00:18;1.38;;;0.90;;
32329;SDS011;18807;52.434;13.238;2023-04-24T16:07:54;2.97;;;0.93;;
32329;SDS011;18807;52.434;13.238;2023-04-24T16:15:28;1.08;;;0.80;;
32329;SDS011;18807;52.434;13.238;2023-04-24T16:23:03;1.13;;;0.90;;
32329;SDS011;18807;52.434;13.238;2023-04-24T16:30:37;1.27;;;0.80;;
32329;SDS011;18807;52.434;13.238;2023-04-24T16:38:13;0.53;;;0.50;;
32329;SDS011;18807;52.434;13.238;2023-04-24T16:45:47;0.93;;;0.75;;
32329;SDS011;18807;52.434;13.238;2023-04-24T16:53:22;2.75;;;1.02;;
32329;SDS011;18807;52.434;13.238;2023-04-24T17:00:56;0.93;;;0.75;;
32329;SDS011;18807;52.434;13.238;2023-04-24T17:08:32;2.13;;;0.77;;
32329;SDS011;18807;52.434;13.238;2023-04-24T17:23:41;1.60;;;0.95;;
32329;SDS011;18807;52.434;13.238;2023-04-24T17:31:15;0.65;;;0.50;;
32329;SDS011;18807;52.434;13.238;2023-04-24T17:38:50;1.40;;;0.80;;
32329;SDS011;18807;52.434;13.238;2023-04-24T17:46:24;1.50;;;1.00;;
32329;SDS011;18807;52.434;13.238;2023-04-24T17:54:00;1.20;;;1.10;;
32329;SDS011;18807;52.434;13.238;2023-04-24T18:01:34;1.50;;;1.35;;
32329;SDS011;18807;52.434;13.238;2023-04-24T18:09:09;0.90;;;0.90;;
32329;SDS011;18807;52.434;13.238;2023-04-24T18:16:44;2.55;;;0.60;;
32329;SDS011;18807;52.434;13.238;2023-04-24T18:24:21;1.05;;;0.70;;
32329;SDS011;18807;52.434;13.238;2023-04-24T18:31:55;1.05;;;0.47;;
32329;SDS011;18807;52.434;13.238;2023-04-24T18:39:31;4.07;;;0.50;;
32329;SDS011;18807;52.434;13.238;2023-04-24T18:47:06;0.30;;;0.30;;
32329;SDS011;18807;52.434;13.238;2023-04-24T18:54:42;0.60;;;0.50;;
32329;SDS011;18807;52.434;13.238;2023-04-24T19:02:16;0.73;;;0.40;;
32329;SDS011;18807;52.434;13.238;2023-04-24T19:09:52;0.50;;;0.35;;
32329;SDS011;18807;52.434;13.238;2023-04-24T19:17:26;0.80;;;0.32;;
32329;SDS011;18807;52.434;13.238;2023-04-24T19:25:01;0.60;;;0.53;;
32329;SDS011;18807;52.434;13.238;2023-04-24T19:32:36;2.35;;;0.93;;
32329;SDS011;18807;52.434;13.238;2023-04-24T19:40:12;1.80;;;0.93;;
32329;SDS011;18807;52.434;13.238;2023-04-24T19:47:46;1.55;;;1.00;;
32329;SDS011;18807;52.434;13.238;2023-04-24T19:55:21;1.30;;;1.13;;
32329;SDS011;18807;52.434;13.238;2023-04-24T20:02:55;1.38;;;1.23;;
32329;SDS011;18807;52.434;13.238;2023-04-24T20:10:31;1.85;;;1.50;;
32329;SDS011;18807;52.434;13.238;2023-04-24T20:18:05;3.60;;;1.70;;
32329;SDS011;18807;52.434;13.238;2023-04-24T20:25:40;2.85;;;1.60;;
32329;SDS011;18807;52.434;13.238;2023-04-24T20:33:14;2.45;;;1.55;;
32329;SDS011;18807;52.434;13.238;2023-04-24T20:40:49;3.67;;;1.45;;
32329;SDS011;18807;52.434;13.238;2023-04-24T20:48:26;4.40;;;1.70;;
32329;SDS011;18807;52.434;13.238;2023-04-24T20:56:02;3.73;;;1.73;;
32329;SDS011;18807;52.434;13.238;2023-04-24T21:03:36;4.13;;;1.80;;
32329;SDS011;18807;52.434;13.238;2023-04-24T21:11:11;2.88;;;2.25;;
32329;SDS011;18807;52.434;13.238;2023-04-24T21:18:45;3.97;;;2.38;;
32329;SDS011;18807;52.434;13.238;2023-04-24T21:26:21;5.38;;;2.45;;
32329;SDS011;18807;52.434;13.238;2023-04-24T21:33:54;3.60;;;2.60;;
32329;SDS011;18807;52.434;13.238;2023-04-24T21:41:30;3.83;;;2.90;;
32329;SDS011;18807;52.434;13.238;2023-04-24T21:49:04;5.38;;;3.25;;
32329;SDS011;18807;52.434;13.238;2023-04-24T21:56:39;5.80;;;3.08;;
32329;SDS011;18807;52.434;13.238;2023-04-24T22:04:13;3.75;;;2.75;;
32329;SDS011;18807;52.434;13.238;2023-04-24T22:11:49;4.33;;;2.73;;
32329;SDS011;18807;52.434;13.238;2023-04-24T22:19:22;6.18;;;2.95;;
32329;SDS011;18807;52.434;13.238;2023-04-24T22:26:58;5.75;;;2.80;;
32329;SDS011;18807;52.434;13.238;2023-04-24T22:34:32;4.75;;;3.13;;
32329;SDS011;18807;52.434;13.238;2023-04-24T22:42:08;5.30;;;3.20;;
32329;SDS011;18807;52.434;13.238;2023-04-24T22:49:42;4.68;;;3.08;;
32329;SDS011;18807;52.434;13.238;2023-04-24T22:57:17;4.55;;;2.67;;
32329;SDS011;18807;52.434;13.238;2023-04-24T23:04:51;4.20;;;2.20;;
32329;SDS011;18807;52.434;13.238;2023-04-24T23:12:27;4.27;;;2.87;;
32329;SDS011;18807;52.434;13.238;2023-04-24T23:20:01;3.75;;;2.80;;
32329;SDS011;18807;52.434;13.238;2023-04-24T23:27:36;4.10;;;2.63;;
32329;SDS011;18807;52.434;13.238;2023-04-24T23:35:10;4.13;;;2.20;;
32329;SDS011;18807;52.434;13.238;2023-04-24T23:42:46;3.22;;;2.17;;
32329;SDS011;18807;52.434;13.238;2023-04-24T23:50:37;5.93;;;1.90;;
32329;SDS011;18807;52.434;13.238;2023-04-24T23:58:12;2.83;;;1.95;;
